Search for airport 
image banner adimage banner adimage banner ad
image banner ad

KNFL - Fallon Nas (Van Voorhis Fld)

Located in Fallon, United States

ICAO - NFL, IATA -

Data provided by Airmate  

General information

Coordinates: N39°25'4" W118°41'55"
Elevation is 3935 feet MSL.
Magnetic variation is 14° East
View others Airports in Nevada

Operational data

Special qualification required
Current time UTC:
Current local time:
Weather
METAR: KNFL 092056Z VRB04KT 10SM FEW090 SCT250 21/M08 A2999 RMK AO2 SLP126 T02061078 58025 $
TAF: TAF KNFL 0823/0923 VRB06KT 9999 FEW250 QNH2994INS FM090300 02007KT 9999 FEW250 QNH2990INS FM091500 35010KT 9999 SCT250 QNH2980INS TEMPO 0919/0923 35014G22KT LAST NO AMDS AFT 0906 NEXT 1007 T04/0913Z T23/0922Z FS30170
View NOTAMs / SUP AIP / TFR affecting this airport [VIEW]
Communications frequencies: [VIEW]

Runways:

RWY identifierQFULength (ft)Width (ft)SurfaceLDA (ft)
0787°7003152ASPH
25267°7003152ASPH
13R145°14004200ASPH
31L325°14004200ASPH
13L145°11078200CONC
31R325°11078200CONC

Airport contact information

Address: Fallon United States

Satellite view of KNFL